Time;durP1;ratioP1;P1;durP2;ratioP2;P2;SDS_P1;SDS_P2;PMS_P1;PMS_P2;Temp;Humidity;BMP_temperature;BMP_pressure;BME280_temperature;BME280_humidity;BME280_pressure;Samples;Min_cycle;Max_cycle;Signal;HPM_P1;HPM_P2
2022/03/01 00:01:09;;;;;;;;;;;22.20;40.10;;;;;;6317209;27;20042;-51
2022/03/01 00:04:11;;;;;;;;;;;22.70;40.60;;;;;;6316499;27;20771;-50
2022/03/01 00:07:12;;;;;;;;;;;22.10;40.30;;;;;;6316998;27;20045;-52
2022/03/01 00:10:13;;;;;;;;;;;22.20;40.30;;;;;;6317427;27;21153;-55
2022/03/01 00:13:15;;;;;;;;;;;22.50;40.50;;;;;;6315298;27;21427;-52
2022/03/01 00:16:17;;;;;;;;;;;22.50;40.20;;;;;;6319084;27;20715;-53
2022/03/01 00:19:19;;;;;;;;;;;22.00;40.20;;;;;;6296701;27;20034;-52
2022/03/01 00:22:20;;;;;;;;;;;22.30;40.30;;;;;;6317003;27;20045;-54
2022/03/01 00:25:21;;;;;;;;;;;21.80;40.20;;;;;;6317809;27;20013;-54
2022/03/01 00:28:23;;;;;;;;;;;22.40;40.40;;;;;;6321350;27;20046;-51
2022/03/01 00:31:25;;;;;;;;;;;22.20;40.40;;;;;;6319614;27;19977;-50
2022/03/01 00:34:26;;;;;;;;;;;22.40;40.50;;;;;;6317923;27;19931;-51
2022/03/01 00:37:28;;;;;;;;;;;22.00;40.10;;;;;;6312154;27;19966;-53
2022/03/01 00:40:29;;;;;;;;;;;22.40;40.50;;;;;;6319270;27;19930;-52
2022/03/01 00:43:31;;;;;;;;;;;22.40;40.40;;;;;;6297140;27;19927;-54
2022/03/01 00:46:32;;;;;;;;;;;22.50;40.60;;;;;;6299999;27;19971;-51
2022/03/01 00:49:34;;;;;;;;;;;22.60;40.60;;;;;;6315187;27;19996;-52
2022/03/01 00:52:35;;;;;;;;;;;22.30;40.60;;;;;;6313819;27;20030;-54
2022/03/01 00:55:40;;;;;;;;;;;22.70;40.80;;;;;;6314036;27;20014;-53
2022/03/01 00:58:42;;;;;;;;;;;22.40;40.60;;;;;;6319519;27;19962;-50
2022/03/01 01:01:44;;;;;;;;;;;22.20;40.40;;;;;;6320132;27;20046;-51
2022/03/01 01:04:45;;;;;;;;;;;22.20;40.40;;;;;;6326260;27;20760;-53
2022/03/01 01:07:46;;;;;;;;;;;21.80;40.50;;;;;;6324604;27;19966;-52
2022/03/01 01:10:48;;;;;;;;;;;22.40;40.40;;;;;;6325947;27;19938;-51
2022/03/01 01:13:50;;;;;;;;;;;22.50;40.40;;;;;;6326510;27;20020;-56
2022/03/01 01:16:53;;;;;;;;;;;22.10;40.50;;;;;;6326852;27;20046;-54
2022/03/01 01:19:56;;;;;;;;;;;22.10;39.10;;;;;;6310065;27;19923;-56
2022/03/01 01:22:57;;;;;;;;;;;22.20;39.90;;;;;;6326948;27;20841;-53
2022/03/01 01:25:59;;;;;;;;;;;22.00;40.60;;;;;;6324456;27;19930;-52
2022/03/01 01:29:01;;;;;;;;;;;22.20;40.60;;;;;;6326604;27;19923;-51
2022/03/01 01:32:02;;;;;;;;;;;22.00;40.30;;;;;;6324119;27;21172;-56
2022/03/01 01:35:04;;;;;;;;;;;22.20;40.30;;;;;;6325344;27;19946;-53
2022/03/01 01:38:05;;;;;;;;;;;22.40;40.70;;;;;;6326311;27;19978;-54
2022/03/01 01:41:07;;;;;;;;;;;22.20;40.60;;;;;;6325867;27;19924;-52
2022/03/01 01:44:09;;;;;;;;;;;22.00;40.30;;;;;;6328299;27;20923;-49
2022/03/01 01:47:10;;;;;;;;;;;22.40;40.70;;;;;;6321328;27;19973;-55
2022/03/01 01:50:12;;;;;;;;;;;21.90;40.40;;;;;;6323209;27;20015;-53
2022/03/01 01:53:13;;;;;;;;;;;22.30;40.80;;;;;;6324789;27;19933;-53
2022/03/01 01:56:15;;;;;;;;;;;21.80;40.50;;;;;;6326372;27;20793;-50
2022/03/01 01:59:17;;;;;;;;;;;22.70;41.00;;;;;;6331855;27;19927;-52
2022/03/01 02:02:20;;;;;;;;;;;21.90;40.40;;;;;;6329872;27;20678;-51
2022/03/01 02:05:21;;;;;;;;;;;22.70;40.90;;;;;;6329293;27;19927;-52
2022/03/01 02:08:28;;;;;;;;;;;22.40;40.60;;;;;;6325409;27;19927;-50
2022/03/01 02:11:29;;;;;;;;;;;22.20;40.70;;;;;;6327411;27;20047;-49
2022/03/01 02:14:32;;;;;;;;;;;22.30;40.80;;;;;;6330405;27;20033;-52
2022/03/01 02:17:33;;;;;;;;;;;22.30;40.70;;;;;;6304459;27;20158;-52
2022/03/01 02:20:35;;;;;;;;;;;21.80;40.40;;;;;;6315730;27;20026;-49
2022/03/01 02:23:36;;;;;;;;;;;22.20;40.70;;;;;;6316363;27;20281;-50
2022/03/01 02:26:38;;;;;;;;;;;21.90;40.70;;;;;;6315787;27;20054;-53
2022/03/01 02:29:39;;;;;;;;;;;21.90;40.70;;;;;;6321024;27;20050;-52
2022/03/01 02:32:41;;;;;;;;;;;22.20;40.90;;;;;;6314227;27;19931;-51
2022/03/01 02:35:43;;;;;;;;;;;22.00;40.60;;;;;;6322685;27;20163;-50
2022/03/01 02:38:44;;;;;;;;;;;22.40;40.90;;;;;;6317761;27;19938;-50
2022/03/01 02:41:46;;;;;;;;;;;22.10;40.90;;;;;;6318376;27;20548;-52
2022/03/01 02:44:48;;;;;;;;;;;22.20;40.70;;;;;;6299484;27;20266;-51
2022/03/01 02:47:50;;;;;;;;;;;22.40;40.90;;;;;;6302091;27;20224;-52
2022/03/01 02:50:52;;;;;;;;;;;21.90;40.70;;;;;;6320858;27;20066;-55
2022/03/01 02:53:53;;;;;;;;;;;22.20;40.80;;;;;;6321177;27;20350;-52
2022/03/01 02:56:59;;;;;;;;;;;21.80;40.70;;;;;;6320088;27;20262;-51
2022/03/01 03:00:00;;;;;;;;;;;22.20;40.90;;;;;;6319012;27;20573;-52
2022/03/01 03:03:01;;;;;;;;;;;21.70;40.70;;;;;;6299331;27;20806;-52
2022/03/01 03:06:04;;;;;;;;;;;22.10;40.80;;;;;;6317676;27;20551;-51
2022/03/01 03:09:06;;;;;;;;;;;22.00;40.80;;;;;;6314250;27;20490;-51
2022/03/01 03:12:08;;;;;;;;;;;22.30;41.10;;;;;;6318690;27;20061;-52
2022/03/01 03:15:10;;;;;;;;;;;22.30;40.90;;;;;;6316832;27;20002;-53
2022/03/01 03:18:11;;;;;;;;;;;22.20;41.00;;;;;;6317368;27;20855;-49
2022/03/01 03:21:14;;;;;;;;;;;21.80;40.90;;;;;;6316710;27;20501;-50
2022/03/01 03:24:16;;;;;;;;;;;21.80;40.80;;;;;;6313483;27;20308;-51
2022/03/01 03:27:18;;;;;;;;;;;22.20;41.10;;;;;;6286290;27;20166;-52
2022/03/01 03:30:22;;;;;;;;;;;21.90;40.90;;;;;;6318182;27;19955;-53
2022/03/01 03:33:23;;;;;;;;;;;21.80;40.60;;;;;;6324780;27;19927;-54
2022/03/01 03:36:25;;;;;;;;;;;22.10;41.00;;;;;;6317122;27;21068;-49
2022/03/01 03:39:26;;;;;;;;;;;21.70;40.70;;;;;;6317033;27;20230;-48
2022/03/01 03:42:28;;;;;;;;;;;22.20;41.20;;;;;;6319975;27;19954;-50
2022/03/01 03:45:29;;;;;;;;;;;22.30;41.20;;;;;;6311549;27;20376;-49
2022/03/01 03:48:30;;;;;;;;;;;21.80;41.00;;;;;;6315966;27;20261;-48
2022/03/01 03:51:33;;;;;;;;;;;21.80;41.00;;;;;;6317470;27;20360;-49
2022/03/01 03:54:34;;;;;;;;;;;22.20;41.10;;;;;;6315672;27;19934;-52
2022/03/01 03:57:37;;;;;;;;;;;21.70;40.90;;;;;;6317835;27;19934;-51
2022/03/01 04:00:38;;;;;;;;;;;22.10;41.30;;;;;;6320121;27;20007;-50
2022/03/01 04:03:40;;;;;;;;;;;21.80;40.90;;;;;;6317338;27;19927;-52
2022/03/01 04:06:42;;;;;;;;;;;22.00;41.00;;;;;;6315085;27;20921;-52
2022/03/01 04:09:43;;;;;;;;;;;22.10;41.10;;;;;;6311919;27;19981;-50
2022/03/01 04:12:45;;;;;;;;;;;22.10;41.10;;;;;;6315226;27;20721;-52
2022/03/01 04:15:46;;;;;;;;;;;22.30;41.20;;;;;;6313206;27;20214;-52
2022/03/01 04:18:47;;;;;;;;;;;22.10;41.40;;;;;;6312336;27;20445;-49
2022/03/01 04:21:50;;;;;;;;;;;22.00;40.80;;;;;;6319821;27;19974;-49
2022/03/01 04:24:51;;;;;;;;;;;21.80;40.90;;;;;;6323890;27;20224;-54
2022/03/01 04:27:53;;;;;;;;;;;21.80;40.90;;;;;;6281356;27;19927;-49
2022/03/01 04:30:54;;;;;;;;;;;22.30;41.30;;;;;;6317486;27;19923;-51
2022/03/01 04:33:56;;;;;;;;;;;21.70;40.90;;;;;;6315685;27;20186;-48
2022/03/01 04:36:58;;;;;;;;;;;22.10;41.30;;;;;;6314432;27;19994;-52
2022/03/01 04:39:59;;;;;;;;;;;21.80;40.90;;;;;;6314597;27;20193;-52
2022/03/01 04:43:01;;;;;;;;;;;22.10;41.30;;;;;;6313160;27;20251;-49
2022/03/01 04:46:02;;;;;;;;;;;22.20;41.00;;;;;;6314796;27;20682;-49
2022/03/01 04:49:04;;;;;;;;;;;22.20;41.30;;;;;;6322496;27;19924;-51
2022/03/01 04:52:06;;;;;;;;;;;21.70;41.00;;;;;;6321967;27;20894;-52
2022/03/01 04:55:08;;;;;;;;;;;22.20;41.30;;;;;;6322281;27;20759;-54
2022/03/01 04:58:09;;;;;;;;;;;21.90;41.00;;;;;;6322649;27;20116;-50
2022/03/01 05:01:11;;;;;;;;;;;22.10;41.30;;;;;;6318933;27;19927;-50
2022/03/01 05:04:12;;;;;;;;;;;22.00;41.40;;;;;;6316484;27;19953;-49
2022/03/01 05:07:16;;;;;;;;;;;22.10;41.30;;;;;;6313484;27;19931;-53
2022/03/01 05:10:18;;;;;;;;;;;21.80;41.10;;;;;;6313690;27;20727;-51
2022/03/01 05:13:20;;;;;;;;;;;22.10;41.30;;;;;;6313455;27;20577;-52
2022/03/01 05:16:21;;;;;;;;;;;22.30;41.50;;;;;;6311989;27;20227;-53
2022/03/01 05:19:23;;;;;;;;;;;22.00;41.40;;;;;;6304431;27;19927;-51
2022/03/01 05:22:25;;;;;;;;;;;21.80;41.40;;;;;;6310574;27;20027;-50
2022/03/01 05:25:26;;;;;;;;;;;21.90;41.10;;;;;;6314002;27;20223;-51
2022/03/01 05:28:29;;;;;;;;;;;21.80;41.30;;;;;;6303794;27;20115;-51
2022/03/01 05:31:30;;;;;;;;;;;22.00;41.30;;;;;;6311516;27;20081;-55
2022/03/01 05:34:32;;;;;;;;;;;22.10;41.50;;;;;;6312534;27;20362;-53
2022/03/01 05:37:34;;;;;;;;;;;21.90;40.90;;;;;;6312564;27;20358;-50
2022/03/01 05:40:36;;;;;;;;;;;21.80;41.30;;;;;;6311604;27;20397;-52
2022/03/01 05:43:38;;;;;;;;;;;21.70;41.30;;;;;;6309144;27;20242;-49
2022/03/01 05:46:39;;;;;;;;;;;22.30;41.60;;;;;;6308837;27;20151;-50
2022/03/01 05:49:40;;;;;;;;;;;21.80;41.30;;;;;;6313640;27;20751;-49
2022/03/01 05:52:42;;;;;;;;;;;22.10;41.50;;;;;;6310242;27;21396;-52
2022/03/01 05:55:44;;;;;;;;;;;22.20;41.50;;;;;;6319977;27;20046;-52
2022/03/01 05:58:45;;;;;;;;;;;21.80;41.40;;;;;;6320756;27;20735;-51
2022/03/01 06:01:47;;;;;;;;;;;22.40;41.80;;;;;;6300604;27;19962;-53
2022/03/01 06:04:48;;;;;;;;;;;22.00;41.50;;;;;;6300212;27;20038;-53
2022/03/01 06:07:50;;;;;;;;;;;22.10;41.30;;;;;;6294347;27;19938;-51
2022/03/01 06:10:52;;;;;;;;;;;21.60;41.40;;;;;;6317558;27;19930;-48
2022/03/01 06:13:53;;;;;;;;;;;22.00;41.70;;;;;;6307860;27;19923;-53
2022/03/01 06:16:54;;;;;;;;;;;22.10;41.60;;;;;;6317810;27;21268;-51
2022/03/01 06:19:56;;;;;;;;;;;21.90;41.50;;;;;;6318726;27;19965;-52
2022/03/01 06:22:58;;;;;;;;;;;21.50;41.30;;;;;;6291472;27;20041;-52
2022/03/01 06:25:59;;;;;;;;;;;21.70;41.30;;;;;;6313886;27;20702;-52
2022/03/01 06:29:01;;;;;;;;;;;21.60;42.10;;;;;;6320597;27;19924;-51
2022/03/01 06:32:02;;;;;;;;;;;21.60;41.40;;;;;;6319505;27;20799;-53
2022/03/01 06:35:05;;;;;;;;;;;21.60;41.30;;;;;;6314834;27;20949;-52
2022/03/01 06:38:14;;;;;;;;;;;21.90;41.50;;;;;;6279640;27;19927;-52
2022/03/01 06:41:15;;;;;;;;;;;21.90;41.60;;;;;;6313537;27;20048;-51
2022/03/01 06:44:17;;;;;;;;;;;21.60;41.30;;;;;;6315708;27;20775;-52
2022/03/01 06:47:19;;;;;;;;;;;22.30;41.50;;;;;;6311911;27;19931;-51
2022/03/01 06:50:21;;;;;;;;;;;21.90;41.40;;;;;;6309182;27;19927;-50
2022/03/01 06:53:23;;;;;;;;;;;21.70;41.20;;;;;;6283769;27;20037;-51
2022/03/01 06:56:24;;;;;;;;;;;21.90;41.30;;;;;;6301310;27;20049;-51
2022/03/01 06:59:26;;;;;;;;;;;22.10;41.40;;;;;;6302889;27;20102;-51
2022/03/01 07:02:28;;;;;;;;;;;22.00;41.40;;;;;;6298668;27;20755;-54
2022/03/01 07:05:30;;;;;;;;;;;22.10;41.50;;;;;;6301202;27;20046;-51
2022/03/01 07:08:32;;;;;;;;;;;22.20;41.40;;;;;;6290763;27;19927;-51
2022/03/01 07:11:33;;;;;;;;;;;21.80;41.00;;;;;;6287260;27;19977;-48
2022/03/01 07:14:35;;;;;;;;;;;21.90;41.20;;;;;;6296226;27;21802;-53
2022/03/01 07:17:36;;;;;;;;;;;22.40;41.40;;;;;;6300058;27;20724;-53
2022/03/01 07:20:37;;;;;;;;;;;22.10;41.20;;;;;;6295533;27;20885;-52
2022/03/01 07:23:40;;;;;;;;;;;21.90;41.10;;;;;;6285779;27;19932;-48
2022/03/01 07:26:42;;;;;;;;;;;22.10;41.20;;;;;;6281304;27;20054;-55
2022/03/01 07:29:43;;;;;;;;;;;21.90;41.10;;;;;;6279942;27;19931;-52
2022/03/01 07:32:44;;;;;;;;;;;22.20;41.20;;;;;;6283211;27;20277;-53
2022/03/01 07:35:46;;;;;;;;;;;22.00;41.00;;;;;;6273154;27;20965;-49
2022/03/01 07:38:48;;;;;;;;;;;22.30;40.90;;;;;;6268674;27;20460;-52
2022/03/01 07:41:50;;;;;;;;;;;22.20;40.90;;;;;;6258709;27;19937;-48
2022/03/01 07:44:51;;;;;;;;;;;22.30;40.90;;;;;;6253097;27;20638;-49
2022/03/01 07:47:53;;;;;;;;;;;22.60;41.00;;;;;;6232551;27;19931;-46
2022/03/01 07:50:54;;;;;;;;;;;22.20;40.90;;;;;;6241918;27;20016;-50
2022/03/01 07:53:56;;;;;;;;;;;22.50;41.00;;;;;;6213399;27;20058;-50
2022/03/01 07:56:58;;;;;;;;;;;22.50;40.90;;;;;;6180255;27;33407;-49
2022/03/01 08:00:00;;;;;;;;;;;22.80;41.10;;;;;;6185135;27;22327;-47
2022/03/01 08:03:01;;;;;;;;;;;22.40;40.90;;;;;;6138388;27;19967;-50
2022/03/01 08:06:03;;;;;;;;;;;22.40;40.80;;;;;;6142048;27;19977;-48
2022/03/01 08:09:05;;;;;;;;;;;22.50;40.70;;;;;;6132670;27;19938;-48
2022/03/01 08:12:07;;;;;;;;;;;22.30;40.60;;;;;;6107657;27;30762;-52
2022/03/01 08:15:09;;;;;;;;;;;22.60;40.80;;;;;;6139030;27;19938;-50
2022/03/01 08:18:10;;;;;;;;;;;22.50;40.90;;;;;;6105750;27;19931;-50
2022/03/01 08:21:12;;;;;;;;;;;22.60;40.90;;;;;;6125909;27;19938;-48
2022/03/01 08:24:14;;;;;;;;;;;22.40;40.80;;;;;;6113967;27;19939;-47
2022/03/01 08:27:16;;;;;;;;;;;22.40;40.40;;;;;;6120913;27;19938;-52
2022/03/01 08:30:18;;;;;;;;;;;22.70;40.60;;;;;;6152442;27;38596;-47
2022/03/01 08:33:21;;;;;;;;;;;22.60;40.40;;;;;;6091942;27;20038;-52
2022/03/01 08:36:23;;;;;;;;;;;22.40;40.70;;;;;;6114547;27;19978;-46
2022/03/01 08:39:25;;;;;;;;;;;22.60;40.60;;;;;;6091559;27;19987;-47
2022/03/01 08:42:26;;;;;;;;;;;22.50;40.90;;;;;;6112728;27;20701;-48
2022/03/01 08:45:28;;;;;;;;;;;23.20;40.70;;;;;;6109217;27;19931;-50
2022/03/01 08:48:29;;;;;;;;;;;23.20;40.80;;;;;;6080383;27;19939;-47
2022/03/01 08:51:31;;;;;;;;;;;22.60;40.30;;;;;;6124062;27;20066;-48
2022/03/01 08:54:33;;;;;;;;;;;22.80;40.30;;;;;;6125010;27;19931;-47
2022/03/01 08:57:35;;;;;;;;;;;22.70;40.40;;;;;;6083026;27;19931;-46
2022/03/01 09:00:37;;;;;;;;;;;23.00;40.60;;;;;;6077719;27;20080;-47
2022/03/01 09:03:39;;;;;;;;;;;22.90;40.60;;;;;;5999491;27;21323;-48
2022/03/01 09:06:46;;;;;;;;;;;23.40;40.70;;;;;;6025119;27;20027;-51
2022/03/01 09:09:54;;;;;;;;;;;23.00;40.60;;;;;;6075695;27;19931;-51
2022/03/01 09:12:57;;;;;;;;;;;23.10;40.50;;;;;;6094636;27;19931;-49
2022/03/01 09:15:58;;;;;;;;;;;23.00;41.00;;;;;;6102880;27;19967;-48
2022/03/01 09:19:02;;;;;;;;;;;23.00;40.40;;;;;;6064211;27;22824;-50
2022/03/01 09:22:04;;;;;;;;;;;23.00;40.30;;;;;;6102574;27;19930;-51
2022/03/01 09:25:06;;;;;;;;;;;23.20;40.80;;;;;;6103337;27;20415;-48
2022/03/01 09:28:08;;;;;;;;;;;23.20;40.30;;;;;;6057773;27;19942;-47
2022/03/01 09:31:10;;;;;;;;;;;23.20;40.90;;;;;;6080957;27;20210;-51
2022/03/01 09:34:11;;;;;;;;;;;23.20;40.30;;;;;;6096123;27;19931;-47
2022/03/01 09:37:13;;;;;;;;;;;23.10;40.40;;;;;;6070315;27;19937;-48
2022/03/01 09:40:15;;;;;;;;;;;23.10;40.40;;;;;;6092549;27;19938;-49
2022/03/01 09:43:17;;;;;;;;;;;22.80;40.30;;;;;;6098652;27;19938;-46
2022/03/01 09:46:19;;;;;;;;;;;23.10;40.20;;;;;;6094277;27;20026;-50
2022/03/01 09:49:20;;;;;;;;;;;23.40;40.60;;;;;;6078531;27;19932;-52
2022/03/01 09:52:22;;;;;;;;;;;23.20;40.40;;;;;;6078268;27;19974;-49
2022/03/01 09:55:24;;;;;;;;;;;23.00;40.40;;;;;;6118559;27;19985;-50
2022/03/01 09:58:29;;;;;;;;;;;23.30;41.00;;;;;;6124840;27;19931;-47
2022/03/01 10:01:30;;;;;;;;;;;23.10;40.30;;;;;;6082599;27;19938;-47
2022/03/01 10:04:32;;;;;;;;;;;23.30;40.70;;;;;;6092332;27;26196;-51
2022/03/01 10:07:34;;;;;;;;;;;23.40;40.40;;;;;;6067977;27;22740;-50
2022/03/01 10:10:36;;;;;;;;;;;23.20;40.10;;;;;;6073527;27;21952;-47
2022/03/01 10:13:40;;;;;;;;;;;23.90;40.50;;;;;;6093666;27;19938;-46
2022/03/01 10:16:43;;;;;;;;;;;23.20;40.30;;;;;;6086848;27;20865;-48
2022/03/01 10:19:45;;;;;;;;;;;23.00;40.10;;;;;;6083558;27;19931;-51
2022/03/01 10:22:47;;;;;;;;;;;23.30;40.30;;;;;;6072458;27;20269;-51
2022/03/01 10:25:50;;;;;;;;;;;23.20;40.20;;;;;;6090849;27;19937;-47
2022/03/01 10:28:52;;;;;;;;;;;23.40;40.40;;;;;;6128850;27;19931;-50
2022/03/01 10:31:55;;;;;;;;;;;23.60;40.60;;;;;;6081309;27;19939;-49
2022/03/01 10:34:58;;;;;;;;;;;23.40;40.20;;;;;;6102824;27;19931;-46
2022/03/01 10:38:01;;;;;;;;;;;23.00;39.90;;;;;;6116589;27;19931;-47
2022/03/01 10:41:03;;;;;;;;;;;23.20;40.20;;;;;;6134300;27;19938;-47
2022/03/01 10:44:05;;;;;;;;;;;22.90;40.00;;;;;;6147446;27;20044;-47
2022/03/01 10:47:06;;;;;;;;;;;23.40;40.30;;;;;;6078742;27;19985;-49
2022/03/01 10:50:09;;;;;;;;;;;23.10;40.00;;;;;;6116727;27;19976;-47
2022/03/01 10:53:11;;;;;;;;;;;22.80;39.90;;;;;;6108289;27;21769;-50
2022/03/01 10:56:14;;;;;;;;;;;23.10;40.20;;;;;;6106244;27;19937;-48
2022/03/01 10:59:15;;;;;;;;;;;23.40;40.30;;;;;;6081219;27;20207;-48
2022/03/01 11:02:17;;;;;;;;;;;23.50;40.30;;;;;;6087523;27;19935;-47
2022/03/01 11:05:22;;;;;;;;;;;23.20;40.10;;;;;;6107086;27;19931;-48
2022/03/01 11:08:45;;;;;;;;;;;23.50;40.30;;;;;;6103474;27;21287;-49
2022/03/01 11:11:48;;;;;;;;;;;23.50;40.20;;;;;;6106533;27;19983;-52
2022/03/01 11:15:00;;;;;;;;;;;23.10;40.10;;;;;;6109327;27;20185;-47
2022/03/01 11:18:07;;;;;;;;;;;23.50;40.20;;;;;;6088520;27;20469;-46
2022/03/01 11:21:10;;;;;;;;;;;23.50;40.30;;;;;;6105279;27;19932;-46
2022/03/01 11:24:14;;;;;;;;;;;23.20;40.00;;;;;;6096180;27;19975;-48
2022/03/01 11:27:19;;;;;;;;;;;23.30;40.30;;;;;;6132045;27;19931;-48
2022/03/01 11:30:25;;;;;;;;;;;23.50;40.20;;;;;;6158015;27;19932;-48
2022/03/01 11:33:28;;;;;;;;;;;23.50;40.30;;;;;;6160341;27;20976;-46
2022/03/01 11:36:30;;;;;;;;;;;23.50;40.20;;;;;;6168577;27;19981;-47
2022/03/01 11:39:34;;;;;;;;;;;23.20;39.90;;;;;;6194368;27;19975;-51
2022/03/01 11:42:36;;;;;;;;;;;23.50;40.20;;;;;;6178350;27;20028;-48
2022/03/01 11:45:39;;;;;;;;;;;23.10;40.00;;;;;;6206750;27;19934;-48
2022/03/01 11:48:44;;;;;;;;;;;23.50;40.20;;;;;;6209512;27;20438;-49
2022/03/01 11:51:46;;;;;;;;;;;23.40;40.10;;;;;;6217564;27;20505;-48
2022/03/01 11:54:48;;;;;;;;;;;23.30;40.10;;;;;;6196914;27;20481;-51
2022/03/01 11:57:52;;;;;;;;;;;23.60;40.10;;;;;;6221930;27;20053;-50
2022/03/01 12:00:56;;;;;;;;;;;23.50;40.20;;;;;;6182562;27;19931;-47
2022/03/01 12:04:01;;;;;;;;;;;23.30;40.20;;;;;;6201163;27;20834;-47
2022/03/01 12:07:08;;;;;;;;;;;23.60;39.80;;;;;;6226162;27;19931;-49
2022/03/01 12:10:18;;;;;;;;;;;23.30;40.10;;;;;;6218447;27;19938;-47
2022/03/01 12:13:21;;;;;;;;;;;23.40;40.10;;;;;;6211579;27;20046;-50
2022/03/01 12:16:26;;;;;;;;;;;23.60;40.20;;;;;;6211987;27;20027;-49
2022/03/01 12:19:30;;;;;;;;;;;23.60;40.10;;;;;;6191071;27;20115;-53
2022/03/01 12:22:31;;;;;;;;;;;23.70;40.20;;;;;;6227909;27;19939;-53
2022/03/01 12:25:34;;;;;;;;;;;23.40;40.20;;;;;;6209563;27;20136;-49
2022/03/01 12:28:37;;;;;;;;;;;23.30;40.10;;;;;;6207995;27;19931;-49
2022/03/01 12:31:39;;;;;;;;;;;23.40;40.10;;;;;;6212334;27;19949;-50
2022/03/01 12:34:42;;;;;;;;;;;23.80;40.30;;;;;;6187534;27;20112;-47
2022/03/01 12:37:43;;;;;;;;;;;23.50;40.30;;;;;;6177235;27;19974;-46
2022/03/01 12:40:45;;;;;;;;;;;23.50;40.10;;;;;;6150918;27;21753;-49
2022/03/01 12:43:51;;;;;;;;;;;23.60;40.20;;;;;;6193646;27;21497;-46
2022/03/01 12:46:53;;;;;;;;;;;23.30;39.90;;;;;;6177544;27;19939;-46
2022/03/01 12:49:55;;;;;;;;;;;23.40;40.10;;;;;;6150268;27;19931;-47
2022/03/01 12:52:57;;;;;;;;;;;23.70;40.20;;;;;;6146009;27;19938;-47
2022/03/01 12:55:58;;;;;;;;;;;23.60;40.10;;;;;;6079510;27;19939;-49
2022/03/01 12:59:03;;;;;;;;;;;23.60;40.20;;;;;;6106301;27;20008;-48
2022/03/01 13:02:06;;;;;;;;;;;23.50;40.20;;;;;;6075216;27;19932;-46
2022/03/01 13:05:10;;;;;;;;;;;23.80;40.30;;;;;;6087355;27;20067;-50
2022/03/01 13:08:17;;;;;;;;;;;23.40;40.00;;;;;;6115848;27;19931;-50
2022/03/01 13:11:18;;;;;;;;;;;23.60;40.20;;;;;;6132146;27;19935;-48
2022/03/01 13:14:21;;;;;;;;;;;23.70;40.20;;;;;;6130523;27;20003;-47
2022/03/01 13:17:22;;;;;;;;;;;23.30;40.00;;;;;;6088255;27;20093;-49
2022/03/01 13:20:24;;;;;;;;;;;23.60;40.20;;;;;;6138279;27;21252;-49
2022/03/01 13:23:28;;;;;;;;;;;23.70;40.10;;;;;;6107082;27;19939;-49
2022/03/01 13:26:29;;;;;;;;;;;23.70;40.10;;;;;;6114065;27;19935;-47
2022/03/01 13:29:33;;;;;;;;;;;23.50;40.10;;;;;;6118005;27;20102;-50
2022/03/01 13:32:35;;;;;;;;;;;23.80;40.10;;;;;;6087960;27;20024;-46
2022/03/01 13:35:37;;;;;;;;;;;23.90;40.30;;;;;;6106371;27;19938;-57
2022/03/01 13:38:38;;;;;;;;;;;23.70;40.10;;;;;;6119927;27;21886;-49
2022/03/01 13:41:42;;;;;;;;;;;23.60;40.10;;;;;;6155363;27;19935;-51
2022/03/01 13:44:45;;;;;;;;;;;23.70;40.10;;;;;;6139903;27;19938;-50
2022/03/01 13:47:47;;;;;;;;;;;23.60;40.00;;;;;;6110036;27;20003;-49
2022/03/01 13:50:48;;;;;;;;;;;23.70;40.20;;;;;;6083662;27;21172;-48
2022/03/01 13:53:50;;;;;;;;;;;23.70;40.10;;;;;;6082828;27;22756;-50
2022/03/01 13:56:51;;;;;;;;;;;24.00;40.10;;;;;;6118203;27;20023;-51
2022/03/01 13:59:59;;;;;;;;;;;23.90;40.20;;;;;;6129431;27;21660;-50
2022/03/01 14:03:02;;;;;;;;;;;24.10;40.20;;;;;;6113035;27;21196;-50
2022/03/01 14:06:04;;;;;;;;;;;23.90;40.10;;;;;;6078088;27;19958;-50
2022/03/01 14:09:06;;;;;;;;;;;23.90;40.80;;;;;;6087584;27;19992;-50
2022/03/01 14:12:10;;;;;;;;;;;23.60;40.00;;;;;;6110928;27;20023;-46
2022/03/01 14:15:12;;;;;;;;;;;23.70;40.00;;;;;;6092372;27;21301;-49
2022/03/01 14:18:14;;;;;;;;;;;23.90;39.90;;;;;;6104701;27;20217;-50
2022/03/01 14:21:17;;;;;;;;;;;23.90;40.00;;;;;;6081952;27;20105;-53
2022/03/01 14:24:21;;;;;;;;;;;23.70;40.10;;;;;;6094708;27;19937;-51
2022/03/01 14:27:24;;;;;;;;;;;23.70;40.00;;;;;;6102072;27;20028;-49
2022/03/01 14:30:26;;;;;;;;;;;23.50;39.90;;;;;;6092514;27;19934;-47
2022/03/01 14:33:28;;;;;;;;;;;23.70;39.90;;;;;;6089495;27;21843;-48
2022/03/01 14:36:29;;;;;;;;;;;23.90;40.10;;;;;;6058142;27;19969;-51
2022/03/01 14:39:32;;;;;;;;;;;23.90;40.00;;;;;;6062092;27;19974;-51
2022/03/01 14:42:34;;;;;;;;;;;23.80;39.90;;;;;;6067704;27;19931;-48
2022/03/01 14:45:36;;;;;;;;;;;24.00;40.20;;;;;;6075779;27;20276;-51
2022/03/01 14:48:37;;;;;;;;;;;24.00;40.00;;;;;;6092245;27;19947;-53
2022/03/01 14:51:41;;;;;;;;;;;23.80;40.10;;;;;;6118807;27;19996;-51
2022/03/01 14:54:43;;;;;;;;;;;24.20;40.10;;;;;;6062754;27;19932;-52
2022/03/01 14:57:44;;;;;;;;;;;23.90;40.00;;;;;;6049688;27;20225;-53
2022/03/01 15:00:48;;;;;;;;;;;24.10;40.00;;;;;;6086056;27;20424;-54
2022/03/01 15:03:50;;;;;;;;;;;23.90;39.80;;;;;;6070305;27;19981;-51
2022/03/01 15:06:51;;;;;;;;;;;24.00;40.20;;;;;;6053131;27;19931;-56
2022/03/01 15:09:53;;;;;;;;;;;24.10;40.00;;;;;;6064640;27;19930;-54
2022/03/01 15:12:54;;;;;;;;;;;24.20;40.20;;;;;;6067412;27;19953;-52
2022/03/01 15:15:57;;;;;;;;;;;24.10;40.10;;;;;;6075981;27;19988;-54
2022/03/01 15:18:59;;;;;;;;;;;23.80;39.80;;;;;;6068274;27;19931;-54
2022/03/01 15:22:01;;;;;;;;;;;24.10;40.20;;;;;;6085689;27;21316;-51
2022/03/01 15:25:03;;;;;;;;;;;23.90;39.80;;;;;;6083698;27;20049;-51
2022/03/01 15:28:04;;;;;;;;;;;23.80;39.90;;;;;;6070328;27;20070;-50
2022/03/01 15:31:07;;;;;;;;;;;23.70;39.80;;;;;;6053847;27;20360;-51
2022/03/01 15:34:08;;;;;;;;;;;24.00;40.00;;;;;;6036276;27;20013;-51
2022/03/01 15:37:10;;;;;;;;;;;23.80;40.00;;;;;;6076672;27;25587;-54
2022/03/01 15:40:13;;;;;;;;;;;24.00;40.00;;;;;;6104132;27;19939;-58
2022/03/01 15:43:14;;;;;;;;;;;24.00;40.20;;;;;;6100111;27;19931;-49
2022/03/01 15:46:17;;;;;;;;;;;24.00;40.00;;;;;;6113060;27;19978;-55
2022/03/01 15:49:18;;;;;;;;;;;24.10;40.00;;;;;;6090626;27;21286;-54
2022/03/01 15:52:21;;;;;;;;;;;24.10;40.00;;;;;;6116934;27;21130;-51
2022/03/01 15:55:23;;;;;;;;;;;24.10;40.10;;;;;;6123759;27;19937;-49
2022/03/01 15:58:24;;;;;;;;;;;24.20;40.10;;;;;;6066651;27;24652;-52
2022/03/01 16:01:26;;;;;;;;;;;24.10;40.10;;;;;;6052407;27;20063;-50
2022/03/01 16:04:28;;;;;;;;;;;24.10;40.00;;;;;;6064473;27;19981;-53
2022/03/01 16:07:33;;;;;;;;;;;24.20;40.20;;;;;;6091760;27;19938;-51
2022/03/01 16:10:35;;;;;;;;;;;24.20;40.20;;;;;;6083311;27;19959;-52
2022/03/01 16:13:38;;;;;;;;;;;24.10;40.10;;;;;;6113202;27;19989;-56
2022/03/01 16:16:41;;;;;;;;;;;24.40;40.20;;;;;;6070876;27;19970;-52
2022/03/01 16:19:42;;;;;;;;;;;24.10;40.10;;;;;;6116627;27;19966;-50
2022/03/01 16:22:44;;;;;;;;;;;24.00;40.00;;;;;;6134463;27;24138;-54
2022/03/01 16:25:50;;;;;;;;;;;24.20;40.10;;;;;;6110706;27;21580;-51
2022/03/01 16:28:51;;;;;;;;;;;24.30;40.20;;;;;;6132991;27;22014;-54
2022/03/01 16:31:54;;;;;;;;;;;24.00;40.10;;;;;;6121820;27;20016;-50
2022/03/01 16:34:55;;;;;;;;;;;24.20;40.00;;;;;;6141467;27;19931;-52
2022/03/01 16:37:57;;;;;;;;;;;23.80;40.00;;;;;;6143142;27;19989;-51
2022/03/01 16:40:58;;;;;;;;;;;23.80;40.00;;;;;;6131907;27;20011;-51
2022/03/01 16:44:00;;;;;;;;;;;23.70;39.80;;;;;;6138366;27;20983;-56
2022/03/01 16:47:03;;;;;;;;;;;24.30;40.10;;;;;;6134655;27;19931;-56
2022/03/01 16:50:09;;;;;;;;;;;24.30;40.10;;;;;;6157668;27;19931;-52
2022/03/01 16:53:10;;;;;;;;;;;23.90;39.80;;;;;;6166138;27;19931;-54
2022/03/01 16:56:12;;;;;;;;;;;23.90;40.00;;;;;;6158420;27;20960;-52
2022/03/01 16:59:13;;;;;;;;;;;24.20;40.10;;;;;;6163293;27;19937;-54
2022/03/01 17:02:15;;;;;;;;;;;24.20;40.30;;;;;;6149460;27;19967;-56
2022/03/01 17:05:18;;;;;;;;;;;23.80;39.90;;;;;;6168881;27;19938;-52
2022/03/01 17:08:20;;;;;;;;;;;24.30;40.30;;;;;;6197050;27;20055;-53
2022/03/01 17:11:21;;;;;;;;;;;24.20;40.20;;;;;;6205589;27;20029;-52
2022/03/01 17:14:23;;;;;;;;;;;24.00;40.10;;;;;;6191166;27;20019;-54
2022/03/01 17:17:25;;;;;;;;;;;24.10;40.10;;;;;;6192852;27;19938;-50
2022/03/01 17:20:26;;;;;;;;;;;24.20;40.20;;;;;;6197097;27;19963;-50
2022/03/01 17:23:28;;;;;;;;;;;24.20;40.20;;;;;;6182683;27;20011;-55
2022/03/01 17:26:31;;;;;;;;;;;23.60;39.90;;;;;;6203941;27;19931;-53
2022/03/01 17:29:34;;;;;;;;;;;23.80;40.00;;;;;;6198268;27;20209;-52
2022/03/01 17:32:36;;;;;;;;;;;24.00;40.10;;;;;;6205694;27;19931;-55
2022/03/01 17:35:38;;;;;;;;;;;24.30;40.30;;;;;;6239804;27;20554;-51
2022/03/01 17:38:47;;;;;;;;;;;24.20;40.20;;;;;;6239674;27;19938;-51